sensor_id;sensor_type;location;lat;lon;timestamp;pressure;altitude;pressure_sealevel;temperature;humidity
68179;BME280;54998;42.656;23.382;2023-02-14T00:01:42;96264.47;;;0.72;62.38
68179;BME280;54998;42.656;23.382;2023-02-14T00:04:07;96260.91;;;0.77;62.43
68179;BME280;54998;42.656;23.382;2023-02-14T00:06:34;96268.22;;;0.87;62.20
68179;BME280;54998;42.656;23.382;2023-02-14T00:09:01;96256.75;;;0.76;62.52
68179;BME280;54998;42.656;23.382;2023-02-14T00:11:27;96258.44;;;0.76;62.54
68179;BME280;54998;42.656;23.382;2023-02-14T00:13:54;96251.22;;;0.64;62.87
68179;BME280;54998;42.656;23.382;2023-02-14T00:16:38;96257.25;;;0.59;63.33
68179;BME280;54998;42.656;23.382;2023-02-14T00:19:03;96264.50;;;0.70;62.74
68179;BME280;54998;42.656;23.382;2023-02-14T00:21:34;96268.94;;;0.62;63.04
68179;BME280;54998;42.656;23.382;2023-02-14T00:24:01;96256.28;;;0.64;63.20
68179;BME280;54998;42.656;23.382;2023-02-14T00:26:26;96259.41;;;0.72;62.97
68179;BME280;54998;42.656;23.382;2023-02-14T00:28:52;96241.13;;;0.64;62.98
68179;BME280;54998;42.656;23.382;2023-02-14T00:31:17;96259.59;;;0.66;63.21
68179;BME280;54998;42.656;23.382;2023-02-14T00:33:43;96256.78;;;0.75;62.77
68179;BME280;54998;42.656;23.382;2023-02-14T00:36:08;96256.69;;;0.78;62.49
68179;BME280;54998;42.656;23.382;2023-02-14T00:38:34;96255.53;;;0.88;62.61
68179;BME280;54998;42.656;23.382;2023-02-14T00:41:00;96253.00;;;0.88;62.26
68179;BME280;54998;42.656;23.382;2023-02-14T00:43:26;96245.25;;;0.94;62.37
68179;BME280;54998;42.656;23.382;2023-02-14T00:45:51;96241.28;;;0.86;62.39
68179;BME280;54998;42.656;23.382;2023-02-14T00:48:17;96241.75;;;0.98;62.26
68179;BME280;54998;42.656;23.382;2023-02-14T00:50:42;96226.03;;;0.89;62.27
68179;BME280;54998;42.656;23.382;2023-02-14T00:53:09;96243.19;;;1.06;62.24
68179;BME280;54998;42.656;23.382;2023-02-14T00:55:35;96231.63;;;0.98;62.17
68179;BME280;54998;42.656;23.382;2023-02-14T00:58:00;96232.63;;;0.93;62.59
68179;BME280;54998;42.656;23.382;2023-02-14T01:00:25;96207.44;;;0.91;62.46
68179;BME280;54998;42.656;23.382;2023-02-14T01:02:51;96226.16;;;0.84;62.62
68179;BME280;54998;42.656;23.382;2023-02-14T01:05:16;96208.47;;;0.84;62.88
68179;BME280;54998;42.656;23.382;2023-02-14T01:07:42;96203.56;;;0.79;62.80
68179;BME280;54998;42.656;23.382;2023-02-14T01:10:07;96213.63;;;0.81;62.67
68179;BME280;54998;42.656;23.382;2023-02-14T01:12:33;96213.63;;;0.81;62.69
68179;BME280;54998;42.656;23.382;2023-02-14T01:14:58;96218.88;;;0.75;62.83
68179;BME280;54998;42.656;23.382;2023-02-14T01:17:23;96206.22;;;0.76;62.86
68179;BME280;54998;42.656;23.382;2023-02-14T01:19:52;96228.06;;;0.77;62.63
68179;BME280;54998;42.656;23.382;2023-02-14T01:22:18;96222.16;;;0.78;62.77
68179;BME280;54998;42.656;23.382;2023-02-14T01:24:43;96200.31;;;0.76;62.99
68179;BME280;54998;42.656;23.382;2023-02-14T01:27:08;96196.09;;;0.76;62.80
68179;BME280;54998;42.656;23.382;2023-02-14T01:29:34;96199.59;;;0.72;63.01
68179;BME280;54998;42.656;23.382;2023-02-14T01:31:59;96222.22;;;0.75;62.83
68179;BME280;54998;42.656;23.382;2023-02-14T01:34:25;96198.06;;;0.67;62.99
68179;BME280;54998;42.656;23.382;2023-02-14T01:36:50;96187.25;;;0.63;63.23
68179;BME280;54998;42.656;23.382;2023-02-14T01:39:16;96167.25;;;0.55;63.16
68179;BME280;54998;42.656;23.382;2023-02-14T01:41:44;96188.56;;;0.75;62.85
68179;BME280;54998;42.656;23.382;2023-02-14T01:46:38;96173.41;;;0.75;62.98
68179;BME280;54998;42.656;23.382;2023-02-14T01:49:08;96167.75;;;0.67;62.73
68179;BME280;54998;42.656;23.382;2023-02-14T01:51:39;96175.81;;;0.78;62.71
68179;BME280;54998;42.656;23.382;2023-02-14T01:54:08;96158.34;;;0.72;62.88
68179;BME280;54998;42.656;23.382;2023-02-14T01:56:37;96162.34;;;0.77;62.31
68179;BME280;54998;42.656;23.382;2023-02-14T01:59:07;96173.41;;;0.75;62.60
68179;BME280;54998;42.656;23.382;2023-02-14T02:01:34;96171.94;;;0.68;62.79
68179;BME280;54998;42.656;23.382;2023-02-14T02:04:08;96159.97;;;0.73;62.68
68179;BME280;54998;42.656;23.382;2023-02-14T02:06:37;96169.50;;;0.65;63.01
68179;BME280;54998;42.656;23.382;2023-02-14T02:09:15;96160.94;;;0.69;62.55
68179;BME280;54998;42.656;23.382;2023-02-14T02:11:42;96170.34;;;0.65;62.58
68179;BME280;54998;42.656;23.382;2023-02-14T02:14:12;96174.22;;;0.75;62.48
68179;BME280;54998;42.656;23.382;2023-02-14T02:24:56;96170.34;;;0.65;62.62
68179;BME280;54998;42.656;23.382;2023-02-14T02:27:36;96163.16;;;0.51;63.18
68179;BME280;54998;42.656;23.382;2023-02-14T02:33:57;96143.44;;;0.63;62.83
68179;BME280;54998;42.656;23.382;2023-02-14T02:49:57;96128.66;;;0.78;62.15
68179;BME280;54998;42.656;23.382;2023-02-14T02:58:33;96142.66;;;0.60;62.69
68179;BME280;54998;42.656;23.382;2023-02-14T03:01:02;96142.97;;;0.51;62.99
68179;BME280;54998;42.656;23.382;2023-02-14T03:03:31;96137.34;;;0.70;62.47
68179;BME280;54998;42.656;23.382;2023-02-14T03:06:16;96149.38;;;0.61;62.56
68179;BME280;54998;42.656;23.382;2023-02-14T03:08:41;96136.06;;;0.56;62.62
68179;BME280;54998;42.656;23.382;2023-02-14T03:11:07;96143.59;;;0.58;62.68
68179;BME280;54998;42.656;23.382;2023-02-14T03:21:36;96141.19;;;0.55;62.93
68179;BME280;54998;42.656;23.382;2023-02-14T03:26:47;96126.94;;;0.52;63.28
68179;BME280;54998;42.656;23.382;2023-02-14T03:31:56;96094.38;;;0.43;63.30
68179;BME280;54998;42.656;23.382;2023-02-14T03:42:25;96109.31;;;0.51;63.16
68179;BME280;54998;42.656;23.382;2023-02-14T03:44:53;96111.91;;;0.48;63.30
68179;BME280;54998;42.656;23.382;2023-02-14T03:47:23;96107.25;;;0.35;63.41
68179;BME280;54998;42.656;23.382;2023-02-14T03:50:08;96111.38;;;0.38;63.53
68179;BME280;54998;42.656;23.382;2023-02-14T03:52:35;96101.19;;;0.41;63.36
68179;BME280;54998;42.656;23.382;2023-02-14T03:55:04;96107.78;;;0.45;63.13
68179;BME280;54998;42.656;23.382;2023-02-14T04:00:00;96081.38;;;0.29;63.50
68179;BME280;54998;42.656;23.382;2023-02-14T04:02:40;96082.00;;;0.35;63.19
68179;BME280;54998;42.656;23.382;2023-02-14T04:05:16;96079.53;;;0.34;63.10
68179;BME280;54998;42.656;23.382;2023-02-14T04:07:52;96072.25;;;0.25;63.26
68179;BME280;54998;42.656;23.382;2023-02-14T04:10:18;96083.00;;;0.30;63.04
68179;BME280;54998;42.656;23.382;2023-02-14T04:12:44;96079.72;;;0.28;63.46
68179;BME280;54998;42.656;23.382;2023-02-14T04:15:10;96081.44;;;0.26;63.44
68179;BME280;54998;42.656;23.382;2023-02-14T04:17:36;96080.69;;;0.24;63.46
68179;BME280;54998;42.656;23.382;2023-02-14T04:20:20;96086.50;;;0.26;63.47
68179;BME280;54998;42.656;23.382;2023-02-14T04:22:46;96077.81;;;0.34;63.31
68179;BME280;54998;42.656;23.382;2023-02-14T04:25:12;96080.53;;;0.28;63.18
68179;BME280;54998;42.656;23.382;2023-02-14T04:27:37;96068.50;;;0.36;63.03
68179;BME280;54998;42.656;23.382;2023-02-14T04:30:03;96069.44;;;0.34;63.03
68179;BME280;54998;42.656;23.382;2023-02-14T04:32:29;96068.56;;;0.35;62.76
68179;BME280;54998;42.656;23.382;2023-02-14T04:34:54;96071.22;;;0.30;63.13
68179;BME280;54998;42.656;23.382;2023-02-14T04:37:20;96049.88;;;0.39;62.81
68179;BME280;54998;42.656;23.382;2023-02-14T04:39:45;96072.91;;;0.30;62.80
68179;BME280;54998;42.656;23.382;2023-02-14T04:42:10;96061.19;;;0.29;62.81
68179;BME280;54998;42.656;23.382;2023-02-14T04:44:36;96061.19;;;0.29;62.89
68179;BME280;54998;42.656;23.382;2023-02-14T04:47:05;96058.53;;;0.32;62.60
68179;BME280;54998;42.656;23.382;2023-02-14T04:49:31;96047.78;;;0.27;62.64
68179;BME280;54998;42.656;23.382;2023-02-14T04:51:56;96050.34;;;0.25;62.81
68179;BME280;54998;42.656;23.382;2023-02-14T04:54:22;96051.78;;;0.32;62.38
68179;BME280;54998;42.656;23.382;2023-02-14T04:56:47;96052.72;;;0.30;62.41
68179;BME280;54998;42.656;23.382;2023-02-14T04:59:13;96060.25;;;0.31;62.48
68179;BME280;54998;42.656;23.382;2023-02-14T05:01:39;96062.81;;;0.30;62.48
68179;BME280;54998;42.656;23.382;2023-02-14T05:04:05;96066.22;;;0.29;62.43
68179;BME280;54998;42.656;23.382;2023-02-14T05:06:31;96069.78;;;0.22;62.56
68179;BME280;54998;42.656;23.382;2023-02-14T05:08:57;96068.84;;;0.26;62.66
68179;BME280;54998;42.656;23.382;2023-02-14T05:11:22;96058.69;;;0.27;62.40
68179;BME280;54998;42.656;23.382;2023-02-14T05:13:48;96051.91;;;0.29;62.55
68179;BME280;54998;42.656;23.382;2023-02-14T05:16:13;96060.28;;;0.30;62.54
68179;BME280;54998;42.656;23.382;2023-02-14T05:18:39;96059.31;;;0.34;62.29
68179;BME280;54998;42.656;23.382;2023-02-14T05:21:04;96062.66;;;0.34;62.04
68179;BME280;54998;42.656;23.382;2023-02-14T05:23:29;96052.38;;;0.40;61.79
68179;BME280;54998;42.656;23.382;2023-02-14T05:25:55;96042.19;;;0.44;61.67
68179;BME280;54998;42.656;23.382;2023-02-14T05:28:21;96043.78;;;0.46;61.48
68179;BME280;54998;42.656;23.382;2023-02-14T05:30:49;96052.19;;;0.47;61.58
68179;BME280;54998;42.656;23.382;2023-02-14T05:33:14;96049.63;;;0.48;61.61
68179;BME280;54998;42.656;23.382;2023-02-14T05:35:40;96039.50;;;0.48;61.66
68179;BME280;54998;42.656;23.382;2023-02-14T05:38:05;96056.16;;;0.54;61.72
68179;BME280;54998;42.656;23.382;2023-02-14T05:40:30;96036.22;;;0.46;61.71
68179;BME280;54998;42.656;23.382;2023-02-14T05:42:57;96038.47;;;0.54;61.62
68179;BME280;54998;42.656;23.382;2023-02-14T05:45:23;96047.59;;;0.58;61.57
68179;BME280;54998;42.656;23.382;2023-02-14T05:47:48;96023.28;;;0.55;61.70
68179;BME280;54998;42.656;23.382;2023-02-14T05:50:15;96038.47;;;0.54;61.48
68179;BME280;54998;42.656;23.382;2023-02-14T05:52:40;96045.88;;;0.58;61.57
68179;BME280;54998;42.656;23.382;2023-02-14T05:55:06;96043.53;;;0.79;61.14
68179;BME280;54998;42.656;23.382;2023-02-14T05:57:32;96046.78;;;1.08;59.90
68179;BME280;54998;42.656;23.382;2023-02-14T05:59:57;96046.97;;;1.27;59.48
68179;BME280;54998;42.656;23.382;2023-02-14T06:02:23;96046.97;;;1.27;59.23
68179;BME280;54998;42.656;23.382;2023-02-14T06:04:48;96049.97;;;1.13;59.89
68179;BME280;54998;42.656;23.382;2023-02-14T06:07:14;96055.13;;;1.10;59.68
68179;BME280;54998;42.656;23.382;2023-02-14T06:09:40;96064.72;;;1.49;59.12
68179;BME280;54998;42.656;23.382;2023-02-14T06:12:05;96057.75;;;1.77;58.00
68179;BME280;54998;42.656;23.382;2023-02-14T06:14:31;96067.25;;;2.16;57.29
68179;BME280;54998;42.656;23.382;2023-02-14T06:16:56;96046.53;;;2.49;55.86
68179;BME280;54998;42.656;23.382;2023-02-14T06:19:22;96063.19;;;3.37;53.77
68179;BME280;54998;42.656;23.382;2023-02-14T06:21:47;96057.91;;;2.81;54.35
68179;BME280;54998;42.656;23.382;2023-02-14T06:24:13;96061.97;;;2.85;53.84
68179;BME280;54998;42.656;23.382;2023-02-14T06:26:39;96059.34;;;3.28;53.30
68179;BME280;54998;42.656;23.382;2023-02-14T06:29:04;96063.47;;;3.10;53.79
68179;BME280;54998;42.656;23.382;2023-02-14T06:31:29;96055.75;;;3.13;53.56
68179;BME280;54998;42.656;23.382;2023-02-14T06:33:55;96065.44;;;3.03;54.05
68179;BME280;54998;42.656;23.382;2023-02-14T06:36:21;96068.63;;;2.88;54.24
68179;BME280;54998;42.656;23.382;2023-02-14T06:38:47;96060.97;;;2.90;54.13
68179;BME280;54998;42.656;23.382;2023-02-14T06:41:14;96055.59;;;2.34;56.00
68179;BME280;54998;42.656;23.382;2023-02-14T06:43:45;96058.25;;;2.74;55.19
68179;BME280;54998;42.656;23.382;2023-02-14T06:46:13;96059.19;;;2.71;55.64
68179;BME280;54998;42.656;23.382;2023-02-14T06:48:38;96051.28;;;2.99;54.31
68179;BME280;54998;42.656;23.382;2023-02-14T06:51:04;96055.69;;;3.15;53.83
68179;BME280;54998;42.656;23.382;2023-02-14T06:53:29;96059.63;;;2.81;54.70
68179;BME280;54998;42.656;23.382;2023-02-14T06:55:55;96048.72;;;2.58;55.69
68179;BME280;54998;42.656;23.382;2023-02-14T06:58:20;96031.41;;;2.68;55.39
68179;BME280;54998;42.656;23.382;2023-02-14T07:00:46;96049.53;;;2.16;56.58
68179;BME280;54998;42.656;23.382;2023-02-14T07:03:12;96050.66;;;2.31;57.07
68179;BME280;54998;42.656;23.382;2023-02-14T07:05:37;96025.34;;;2.52;56.71
68179;BME280;54998;42.656;23.382;2023-02-14T07:08:04;96038.38;;;2.00;58.42
68179;BME280;54998;42.656;23.382;2023-02-14T07:10:31;96031.81;;;2.16;57.91
68179;BME280;54998;42.656;23.382;2023-02-14T07:12:58;96020.25;;;2.31;57.60
68179;BME280;54998;42.656;23.382;2023-02-14T07:15:24;96041.03;;;2.39;57.20
68179;BME280;54998;42.656;23.382;2023-02-14T07:17:49;96027.41;;;2.42;57.31
68179;BME280;54998;42.656;23.382;2023-02-14T07:20:14;96035.03;;;2.42;57.79
68179;BME280;54998;42.656;23.382;2023-02-14T07:22:40;96025.88;;;2.38;57.73
68179;BME280;54998;42.656;23.382;2023-02-14T07:25:06;96027.28;;;2.02;59.56
68179;BME280;54998;42.656;23.382;2023-02-14T07:27:32;96046.28;;;1.91;59.87
68179;BME280;54998;42.656;23.382;2023-02-14T07:29:58;96032.69;;;2.15;59.78
68179;BME280;54998;42.656;23.382;2023-02-14T07:32:23;96011.69;;;1.91;60.72
68179;BME280;54998;42.656;23.382;2023-02-14T07:34:49;96027.06;;;2.09;60.62
68179;BME280;54998;42.656;23.382;2023-02-14T07:37:15;96049.25;;;2.02;60.53
68179;BME280;54998;42.656;23.382;2023-02-14T07:39:42;96020.63;;;2.00;61.42
68179;BME280;54998;42.656;23.382;2023-02-14T07:42:08;96045.19;;;1.98;61.44
68179;BME280;54998;42.656;23.382;2023-02-14T07:44:33;96045.28;;;1.95;62.58
68179;BME280;54998;42.656;23.382;2023-02-14T07:46:59;96037.88;;;2.12;62.22
68179;BME280;54998;42.656;23.382;2023-02-14T07:49:24;96042.25;;;1.87;62.92
68179;BME280;54998;42.656;23.382;2023-02-14T07:51:49;96007.41;;;1.93;63.35
68179;BME280;54998;42.656;23.382;2023-02-14T07:54:15;96065.91;;;1.85;63.43
68179;BME280;54998;42.656;23.382;2023-02-14T07:56:40;96029.69;;;1.61;64.39
68179;BME280;54998;42.656;23.382;2023-02-14T07:59:06;96059.22;;;1.61;64.91
68179;BME280;54998;42.656;23.382;2023-02-14T08:01:31;96079.06;;;1.72;64.62
68179;BME280;54998;42.656;23.382;2023-02-14T08:03:57;96078.94;;;1.75;64.65
68179;BME280;54998;42.656;23.382;2023-02-14T08:06:22;96083.63;;;1.62;64.85
68179;BME280;54998;42.656;23.382;2023-02-14T08:08:50;96080.16;;;1.88;64.54
68179;BME280;54998;42.656;23.382;2023-02-14T08:11:15;96073.53;;;1.84;64.78
68179;BME280;54998;42.656;23.382;2023-02-14T08:14:01;96077.00;;;1.81;64.81
68179;BME280;54998;42.656;23.382;2023-02-14T08:16:26;96089.31;;;1.91;64.57
68179;BME280;54998;42.656;23.382;2023-02-14T08:18:51;96068.19;;;1.70;64.64
68179;BME280;54998;42.656;23.382;2023-02-14T08:21:17;96082.03;;;1.59;65.62
68179;BME280;54998;42.656;23.382;2023-02-14T08:23:42;96081.44;;;1.76;65.07
68179;BME280;54998;42.656;23.382;2023-02-14T08:26:08;96092.09;;;1.84;64.84
68179;BME280;54998;42.656;23.382;2023-02-14T08:28:33;96088.03;;;1.80;64.80
68179;BME280;54998;42.656;23.382;2023-02-14T08:31:00;96078.34;;;1.92;64.55
68179;BME280;54998;42.656;23.382;2023-02-14T08:33:25;96088.34;;;1.95;64.33
68179;BME280;54998;42.656;23.382;2023-02-14T08:35:51;96079.38;;;1.86;64.65
68179;BME280;54998;42.656;23.382;2023-02-14T08:38:16;96089.44;;;1.88;64.45
68179;BME280;54998;42.656;23.382;2023-02-14T08:40:42;96081.59;;;1.95;64.69
68179;BME280;54998;42.656;23.382;2023-02-14T08:43:08;96077.75;;;2.07;63.57
68179;BME280;54998;42.656;23.382;2023-02-14T08:45:34;96089.06;;;1.98;63.84
68179;BME280;54998;42.656;23.382;2023-02-14T08:48:10;96091.59;;;1.98;64.06
68179;BME280;54998;42.656;23.382;2023-02-14T08:50:37;96095.28;;;1.90;64.47
68179;BME280;54998;42.656;23.382;2023-02-14T08:53:09;96097.03;;;1.88;64.68
68179;BME280;54998;42.656;23.382;2023-02-14T08:55:36;96101.47;;;1.82;65.02
68179;BME280;54998;42.656;23.382;2023-02-14T08:58:02;96088.09;;;1.79;65.10
68179;BME280;54998;42.656;23.382;2023-02-14T09:00:29;96099.31;;;1.72;65.32
68179;BME280;54998;42.656;23.382;2023-02-14T09:02:54;96108.69;;;1.70;66.03
68179;BME280;54998;42.656;23.382;2023-02-14T09:05:20;96096.78;;;1.95;65.43
68179;BME280;54998;42.656;23.382;2023-02-14T09:07:47;96067.97;;;1.98;64.93
68179;BME280;54998;42.656;23.382;2023-02-14T10:29:46;96019.16;;;1.72;64.54
68179;BME280;54998;42.656;23.382;2023-02-14T10:32:20;96022.31;;;1.55;64.98
68179;BME280;54998;42.656;23.382;2023-02-14T10:34:50;96012.28;;;1.76;64.65
68179;BME280;54998;42.656;23.382;2023-02-14T10:37:31;96029.63;;;1.63;64.82
68179;BME280;54998;42.656;23.382;2023-02-14T10:40:28;96043.88;;;1.66;64.77
68179;BME280;54998;42.656;23.382;2023-02-14T10:47:25;96024.84;;;1.77;64.62
68179;BME280;54998;42.656;23.382;2023-02-14T10:52:14;96024.53;;;1.87;63.45
68179;BME280;54998;42.656;23.382;2023-02-14T10:54:44;96026.75;;;1.72;64.14
68179;BME280;54998;42.656;23.382;2023-02-14T10:57:14;96021.81;;;1.91;63.50
68179;BME280;54998;42.656;23.382;2023-02-14T11:02:51;95996.97;;;1.57;64.62
68179;BME280;54998;42.656;23.382;2023-02-14T11:05:34;96015.34;;;1.60;64.51
68179;BME280;54998;42.656;23.382;2023-02-14T11:08:01;96027.97;;;1.62;63.97
68179;BME280;54998;42.656;23.382;2023-02-14T11:10:37;96019.25;;;1.69;64.25
68179;BME280;54998;42.656;23.382;2023-02-14T11:13:30;96006.38;;;1.75;63.43
68179;BME280;54998;42.656;23.382;2023-02-14T11:16:07;96023.66;;;1.64;64.35
68179;BME280;54998;42.656;23.382;2023-02-14T11:18:33;96028.63;;;1.67;64.36
68179;BME280;54998;42.656;23.382;2023-02-14T11:21:09;96022.22;;;1.80;63.70
68179;BME280;54998;42.656;23.382;2023-02-14T11:26:05;96021.03;;;1.67;63.88
68179;BME280;54998;42.656;23.382;2023-02-14T11:28:33;96009.81;;;1.74;63.27
68179;BME280;54998;42.656;23.382;2023-02-14T11:30:59;96015.31;;;1.62;63.26
68179;BME280;54998;42.656;23.382;2023-02-14T11:33:54;96000.25;;;1.81;62.96
68179;BME280;54998;42.656;23.382;2023-02-14T11:36:20;95980.84;;;1.81;62.80
68179;BME280;54998;42.656;23.382;2023-02-14T11:39:12;96003.44;;;1.86;62.26
68179;BME280;54998;42.656;23.382;2023-02-14T11:41:49;96004.78;;;1.51;63.05
68179;BME280;54998;42.656;23.382;2023-02-14T11:44:18;96004.00;;;1.49;62.82
68179;BME280;54998;42.656;23.382;2023-02-14T11:46:50;95995.38;;;1.76;62.39
68179;BME280;54998;42.656;23.382;2023-02-14T11:49:30;95980.84;;;1.81;61.53
68179;BME280;54998;42.656;23.382;2023-02-14T11:51:58;95976.75;;;1.99;60.93
68179;BME280;54998;42.656;23.382;2023-02-14T11:54:31;95966.78;;;2.17;60.33
68179;BME280;54998;42.656;23.382;2023-02-14T11:57:20;95978.75;;;2.13;59.87
68179;BME280;54998;42.656;23.382;2023-02-14T11:59:52;95976.59;;;2.24;59.13
68179;BME280;54998;42.656;23.382;2023-02-14T12:02:36;95967.75;;;2.35;59.14
68179;BME280;54998;42.656;23.382;2023-02-14T12:05:06;95971.16;;;2.13;59.27
68179;BME280;54998;42.656;23.382;2023-02-14T12:07:42;95955.38;;;2.27;59.27
68179;BME280;54998;42.656;23.382;2023-02-14T12:12:34;95950.38;;;2.05;59.63
68179;BME280;54998;42.656;23.382;2023-02-14T12:15:23;95939.53;;;2.01;59.84
68179;BME280;54998;42.656;23.382;2023-02-14T12:17:55;95950.53;;;2.22;59.33
68179;BME280;54998;42.656;23.382;2023-02-14T12:20:41;95934.25;;;2.49;58.41
68179;BME280;54998;42.656;23.382;2023-02-14T12:26:29;95952.69;;;2.52;58.47
68179;BME280;54998;42.656;23.382;2023-02-14T12:31:33;95907.06;;;2.52;59.15
68179;BME280;54998;42.656;23.382;2023-02-14T12:33:58;95931.16;;;2.81;57.99
68179;BME280;54998;42.656;23.382;2023-02-14T12:44:43;95928.09;;;3.13;56.98
68179;BME280;54998;42.656;23.382;2023-02-14T12:55:28;95946.81;;;3.48;55.91
68179;BME280;54998;42.656;23.382;2023-02-14T12:58:12;95939.72;;;3.55;55.66
68179;BME280;54998;42.656;23.382;2023-02-14T13:01:04;95910.88;;;3.00;57.13
68179;BME280;54998;42.656;23.382;2023-02-14T13:06:35;95936.25;;;3.00;57.80
68179;BME280;54998;42.656;23.382;2023-02-14T13:12:23;95937.31;;;2.76;58.48
68179;BME280;54998;42.656;23.382;2023-02-14T13:15:01;95920.25;;;2.60;58.92
68179;BME280;54998;42.656;23.382;2023-02-14T13:17:36;95933.19;;;2.73;58.81
68179;BME280;54998;42.656;23.382;2023-02-14T13:22:40;95924.09;;;2.69;59.09
68179;BME280;54998;42.656;23.382;2023-02-14T13:27:42;95927.09;;;2.77;59.41
68179;BME280;54998;42.656;23.382;2023-02-14T13:30:18;95928.41;;;2.86;59.37
68179;BME280;54998;42.656;23.382;2023-02-14T13:32:48;95930.44;;;2.59;60.27
68179;BME280;54998;42.656;23.382;2023-02-14T13:35:16;95914.22;;;2.82;59.56
68179;BME280;54998;42.656;23.382;2023-02-14T13:37:51;95911.97;;;2.76;59.27
68179;BME280;54998;42.656;23.382;2023-02-14T13:40:24;95909.75;;;2.68;59.55
68179;BME280;54998;42.656;23.382;2023-02-14T13:42:53;95914.28;;;2.61;60.29
68179;BME280;54998;42.656;23.382;2023-02-14T13:48:15;95929.09;;;2.90;59.48
68179;BME280;54998;42.656;23.382;2023-02-14T13:51:08;95918.06;;;2.72;60.05
68179;BME280;54998;42.656;23.382;2023-02-14T13:53:44;95928.47;;;2.45;60.95
68179;BME280;54998;42.656;23.382;2023-02-14T13:58:36;95932.25;;;2.55;60.75
68179;BME280;54998;42.656;23.382;2023-02-14T14:01:43;95935.56;;;2.57;60.57
68179;BME280;54998;42.656;23.382;2023-02-14T14:15:10;95938.66;;;2.64;60.58
68179;BME280;54998;42.656;23.382;2023-02-14T14:17:37;95920.19;;;2.81;60.02
68179;BME280;54998;42.656;23.382;2023-02-14T14:22:56;95940.69;;;2.76;60.00
68179;BME280;54998;42.656;23.382;2023-02-14T14:25:37;95928.50;;;2.64;60.02
68179;BME280;54998;42.656;23.382;2023-02-14T14:28:10;95927.84;;;2.60;60.58
68179;BME280;54998;42.656;23.382;2023-02-14T14:30:37;95924.84;;;2.71;60.11
68179;BME280;54998;42.656;23.382;2023-02-14T14:33:24;95916.53;;;2.67;60.43
68179;BME280;54998;42.656;23.382;2023-02-14T14:36:20;95905.03;;;2.60;60.64
68179;BME280;54998;42.656;23.382;2023-02-14T14:38:48;95907.06;;;2.52;60.95
68179;BME280;54998;42.656;23.382;2023-02-14T14:41:15;95901.25;;;2.30;61.25
68179;BME280;54998;42.656;23.382;2023-02-14T14:43:40;95910.31;;;2.35;61.39
68179;BME280;54998;42.656;23.382;2023-02-14T14:46:13;95907.19;;;2.08;62.33
68179;BME280;54998;42.656;23.382;2023-02-14T14:48:43;95905.81;;;2.21;61.94
68179;BME280;54998;42.656;23.382;2023-02-14T14:51:20;95922.53;;;2.25;61.94
68179;BME280;54998;42.656;23.382;2023-02-14T14:53:50;95917.59;;;2.22;62.24
68179;BME280;54998;42.656;23.382;2023-02-14T14:56:19;95913.91;;;2.30;61.72
68179;BME280;54998;42.656;23.382;2023-02-14T14:58:45;95918.16;;;2.09;62.14
68179;BME280;54998;42.656;23.382;2023-02-14T15:18:20;95920.31;;;2.18;62.00
68179;BME280;54998;42.656;23.382;2023-02-14T15:20:50;95936.72;;;2.30;61.64
68179;BME280;54998;42.656;23.382;2023-02-14T15:23:22;95934.56;;;2.20;62.05
68179;BME280;54998;42.656;23.382;2023-02-14T15:25:48;95923.84;;;2.14;62.06
68179;BME280;54998;42.656;23.382;2023-02-14T15:28:29;95928.09;;;2.13;62.11
68179;BME280;54998;42.656;23.382;2023-02-14T15:31:01;95940.63;;;2.16;62.34
68179;BME280;54998;42.656;23.382;2023-02-14T15:33:27;95942.19;;;1.98;62.42
68179;BME280;54998;42.656;23.382;2023-02-14T15:35:55;95936.72;;;2.09;62.26
68179;BME280;54998;42.656;23.382;2023-02-14T15:38:22;95934.81;;;2.14;62.34
68179;BME280;54998;42.656;23.382;2023-02-14T15:40:48;95926.59;;;2.09;61.96
68179;BME280;54998;42.656;23.382;2023-02-14T15:45:44;95932.69;;;2.03;62.50
68179;BME280;54998;42.656;23.382;2023-02-14T15:48:16;95938.25;;;2.13;62.32
68179;BME280;54998;42.656;23.382;2023-02-14T15:50:48;95934.41;;;2.03;62.20
68179;BME280;54998;42.656;23.382;2023-02-14T15:55:51;95943.97;;;1.96;62.67
68179;BME280;54998;42.656;23.382;2023-02-14T15:58:22;95940.09;;;1.88;62.59
68179;BME280;54998;42.656;23.382;2023-02-14T16:00:49;95943.78;;;2.01;62.35
68179;BME280;54998;42.656;23.382;2023-02-14T16:03:21;95938.00;;;1.97;62.59
68179;BME280;54998;42.656;23.382;2023-02-14T16:05:48;95926.59;;;2.09;62.36
68179;BME280;54998;42.656;23.382;2023-02-14T16:08:35;95937.75;;;2.03;62.06
68179;BME280;54998;42.656;23.382;2023-02-14T16:11:25;95937.28;;;1.95;62.56
68179;BME280;54998;42.656;23.382;2023-02-14T16:13:52;95938.72;;;2.01;62.29
68179;BME280;54998;42.656;23.382;2023-02-14T16:16:17;95934.66;;;1.97;62.60
68179;BME280;54998;42.656;23.382;2023-02-14T16:18:51;95932.69;;;1.83;62.80
68179;BME280;54998;42.656;23.382;2023-02-14T16:26:44;95936.81;;;1.85;62.66
68179;BME280;54998;42.656;23.382;2023-02-14T16:29:12;95940.09;;;1.88;62.46
68179;BME280;54998;42.656;23.382;2023-02-14T16:31:45;95949.81;;;1.76;62.44
68179;BME280;54998;42.656;23.382;2023-02-14T16:34:12;95943.69;;;1.82;62.26
68179;BME280;54998;42.656;23.382;2023-02-14T16:36:39;95951.00;;;1.90;62.19
68179;BME280;54998;42.656;23.382;2023-02-14T16:39:05;95943.22;;;1.72;62.35
68179;BME280;54998;42.656;23.382;2023-02-14T16:41:35;95952.63;;;1.69;62.66
68179;BME280;54998;42.656;23.382;2023-02-14T16:44:00;95955.94;;;1.71;62.71
68179;BME280;54998;42.656;23.382;2023-02-14T16:46:31;95944.03;;;1.73;62.35
68179;BME280;54998;42.656;23.382;2023-02-14T16:48:56;95944.56;;;1.81;62.30
68179;BME280;54998;42.656;23.382;2023-02-14T16:51:25;95954.31;;;1.70;62.90
68179;BME280;54998;42.656;23.382;2023-02-14T16:53:52;95950.06;;;1.70;62.99
68179;BME280;54998;42.656;23.382;2023-02-14T16:56:41;95955.84;;;1.74;62.59
68179;BME280;54998;42.656;23.382;2023-02-14T16:59:07;95949.00;;;1.76;62.70
68179;BME280;54998;42.656;23.382;2023-02-14T17:01:33;95937.78;;;1.61;62.90
68179;BME280;54998;42.656;23.382;2023-02-14T17:03:58;95951.88;;;1.67;62.95